createdAt,value
2023-03-22T00:03:00.093Z,31.00
2023-03-22T00:06:02.632Z,31.00
2023-03-22T00:09:06.241Z,30.90
2023-03-22T00:12:08.656Z,31.00
2023-03-22T00:15:11.238Z,31.00
2023-03-22T00:18:14.522Z,31.10
2023-03-22T00:21:17.577Z,31.10
2023-03-22T00:24:21.161Z,31.30
2023-03-22T00:27:23.187Z,31.20
2023-03-22T00:30:25.557Z,31.10
2023-03-22T00:33:29.228Z,31.10
2023-03-22T00:36:31.544Z,30.90
2023-03-22T00:39:33.552Z,31.00
2023-03-22T00:42:41.279Z,30.70
2023-03-22T00:45:43.505Z,30.90
2023-03-22T00:48:46.133Z,30.80
2023-03-22T00:51:48.425Z,30.80
2023-03-22T00:54:51.383Z,30.80
2023-03-22T00:57:53.376Z,31.00
2023-03-22T01:00:55.877Z,30.80
2023-03-22T01:03:58.005Z,30.80
2023-03-22T01:07:02.063Z,30.80
2023-03-22T01:10:06.232Z,30.70
2023-03-22T01:13:09.602Z,31.00
2023-03-22T01:16:11.730Z,31.00
2023-03-22T01:19:14.101Z,31.10
2023-03-22T01:22:16.260Z,31.20
2023-03-22T01:25:18.844Z,31.20
2023-03-22T01:28:20.939Z,31.30
2023-03-22T01:31:23.324Z,31.40
2023-03-22T01:34:26.714Z,31.40
2023-03-22T01:37:29.084Z,31.40
2023-03-22T01:40:31.161Z,31.30
2023-03-22T01:43:33.527Z,31.30
2023-03-22T01:46:35.904Z,31.30
2023-03-22T01:49:40.230Z,31.20
2023-03-22T01:52:42.706Z,31.20
2023-03-22T01:55:46.779Z,31.30
2023-03-22T01:58:50.275Z,31.30
2023-03-22T02:01:52.569Z,31.40
2023-03-22T02:04:58.143Z,31.40
2023-03-22T02:08:01.076Z,31.00
2023-03-22T02:11:04.609Z,31.20
2023-03-22T02:14:28.215Z,31.00
2023-03-22T02:17:44.687Z,31.20
2023-03-22T02:21:05.550Z,31.20
2023-03-22T02:24:46.271Z,31.50
2023-03-22T02:27:51.320Z,31.20
2023-03-22T02:30:53.318Z,31.10
2023-03-22T02:34:16.066Z,31.00
2023-03-22T02:37:39.005Z,31.00
2023-03-22T02:41:11.099Z,31.00
2023-03-22T02:44:33.711Z,31.30
2023-03-22T02:47:49.194Z,31.20
2023-03-22T02:50:59.983Z,31.20
2023-03-22T02:54:45.306Z,31.20
2023-03-22T02:58:07.174Z,31.20
2023-03-22T03:01:15.232Z,31.00
2023-03-22T03:04:40.219Z,31.00
2023-03-22T03:07:46.940Z,31.10
2023-03-22T03:10:50.295Z,31.20
2023-03-22T03:13:52.617Z,31.20
2023-03-22T03:17:14.863Z,31.30
2023-03-22T03:20:38.570Z,31.40
2023-03-22T03:24:01.795Z,31.30
2023-03-22T03:27:28.045Z,31.30
2023-03-22T03:30:41.285Z,31.00
2023-03-22T03:33:58.731Z,31.10
2023-03-22T03:37:08.325Z,31.10
2023-03-22T03:40:13.061Z,31.00
2023-03-22T03:43:16.436Z,31.20
2023-03-22T03:46:20.020Z,31.00
2023-03-22T03:49:23.749Z,30.90
2023-03-22T03:52:26.425Z,30.80
2023-03-22T03:55:29.350Z,30.60
2023-03-22T03:58:31.786Z,30.80
2023-03-22T04:01:33.809Z,30.70
2023-03-22T04:04:36.230Z,30.90
2023-03-22T04:07:38.896Z,31.00
2023-03-22T04:10:41.465Z,31.00
2023-03-22T04:13:43.737Z,30.80
2023-03-22T04:16:46.190Z,31.00
2023-03-22T04:19:48.371Z,31.00
2023-03-22T04:22:52.641Z,30.90
2023-03-22T04:25:54.789Z,31.00
2023-03-22T04:28:58.568Z,30.90
2023-03-22T04:32:00.709Z,31.00
2023-03-22T04:35:03.286Z,31.00
2023-03-22T04:38:05.345Z,31.00
2023-03-22T04:41:10.858Z,31.00
2023-03-22T04:44:13.059Z,31.10
2023-03-22T04:47:15.823Z,31.10
2023-03-22T04:50:17.955Z,31.10
2023-03-22T04:53:20.343Z,31.10
2023-03-22T04:56:22.544Z,30.70
2023-03-22T04:59:26.155Z,30.80
2023-03-22T05:02:28.211Z,30.50
2023-03-22T05:05:30.586Z,30.70
2023-03-22T05:08:33.097Z,30.30
2023-03-22T05:11:36.284Z,30.80
2023-03-22T05:14:38.366Z,30.80
2023-03-22T05:17:40.662Z,30.40
2023-03-22T05:20:43.355Z,30.80
2023-03-22T05:23:46.223Z,30.90
2023-03-22T05:26:53.763Z,30.90
2023-03-22T05:29:56.141Z,30.70
2023-03-22T05:33:03.181Z,30.60
2023-03-22T05:36:05.947Z,31.00
2023-03-22T05:39:08.186Z,31.10
2023-03-22T05:42:10.602Z,31.20
2023-03-22T05:45:12.650Z,31.20
2023-03-22T05:48:14.997Z,31.00
2023-03-22T05:51:25.889Z,30.90
2023-03-22T05:54:28.176Z,30.60
2023-03-22T05:57:30.248Z,30.60
2023-03-22T06:00:32.512Z,31.10
2023-03-22T06:03:34.607Z,31.20
2023-03-22T06:06:36.994Z,31.60
2023-03-22T06:09:39.175Z,31.50
2023-03-22T06:12:42.020Z,31.50
2023-03-22T06:15:44.161Z,31.80
2023-03-22T06:18:46.429Z,32.20
2023-03-22T06:21:48.611Z,32.20
2023-03-22T06:24:51.233Z,32.40
2023-03-22T06:27:53.483Z,32.50
2023-03-22T06:30:56.362Z,32.20
2023-03-22T06:33:58.407Z,31.60
2023-03-22T06:37:01.578Z,31.40
2023-03-22T06:40:04.769Z,31.90
2023-03-22T06:43:07.528Z,31.90
2023-03-22T06:46:09.642Z,31.90
2023-03-22T06:49:12.026Z,31.50
2023-03-22T06:52:14.136Z,31.90
2023-03-22T06:55:16.596Z,32.40
2023-03-22T06:58:18.680Z,32.60
2023-03-22T07:01:21.821Z,32.40
2023-03-22T07:04:25.102Z,32.50
2023-03-22T07:07:27.337Z,32.50
2023-03-22T07:10:30.178Z,32.50
2023-03-22T07:13:32.770Z,32.30
2023-03-22T07:16:34.856Z,32.30
2023-03-22T07:19:37.185Z,32.20
2023-03-22T07:22:39.178Z,32.20
2023-03-22T07:25:41.570Z,32.60
2023-03-22T07:28:44.680Z,32.90
2023-03-22T07:31:47.052Z,33.20
2023-03-22T07:34:49.104Z,33.30
2023-03-22T07:37:52.761Z,33.70
2023-03-22T07:40:55.548Z,33.90
2023-03-22T07:44:07.892Z,34.00
2023-03-22T07:47:30.574Z,34.00
2023-03-22T07:50:37.259Z,33.90
2023-03-22T07:53:39.490Z,34.00
2023-03-22T07:56:42.685Z,34.00
2023-03-22T07:59:44.938Z,34.10
2023-03-22T08:02:47.239Z,34.30
2023-03-22T08:05:49.699Z,34.50
2023-03-22T08:08:52.213Z,34.70
2023-03-22T08:11:54.324Z,34.80
2023-03-22T08:14:56.635Z,35.10
2023-03-22T08:17:58.668Z,35.00
2023-03-22T08:21:01.064Z,35.00
2023-03-22T08:24:03.880Z,34.80
2023-03-22T08:27:06.306Z,34.80
2023-03-22T08:30:08.985Z,34.60
2023-03-22T08:33:11.374Z,34.60
2023-03-22T08:36:17.132Z,34.80
2023-03-22T08:39:19.467Z,34.60
2023-03-22T08:42:23.027Z,34.50
2023-03-22T08:45:25.982Z,34.60
2023-03-22T08:48:30.650Z,34.40
2023-03-22T08:51:32.989Z,34.20
2023-03-22T08:54:35.525Z,34.40
2023-03-22T08:57:38.910Z,34.20
2023-03-22T09:00:48.631Z,34.50
2023-03-22T09:03:51.676Z,34.50
2023-03-22T09:06:53.810Z,34.60
2023-03-22T09:09:56.120Z,34.50
2023-03-22T09:12:58.348Z,34.80
2023-03-22T09:16:01.019Z,34.60
2023-03-22T09:19:04.249Z,35.00
2023-03-22T09:22:07.008Z,35.20
2023-03-22T09:25:12.075Z,34.80
2023-03-22T09:28:16.551Z,35.10
2023-03-22T09:31:20.566Z,35.30
2023-03-22T09:34:23.165Z,35.80
2023-03-22T09:37:30.677Z,35.60
2023-03-22T09:40:35.229Z,35.40
2023-03-22T09:43:42.184Z,35.70
2023-03-22T09:46:48.964Z,35.90
2023-03-22T09:50:02.536Z,35.90
2023-03-22T09:53:09.287Z,36.00
2023-03-22T09:56:23.188Z,36.00
2023-03-22T09:59:46.977Z,36.10
2023-03-22T10:03:05.372Z,36.30
2023-03-22T10:06:13.865Z,36.40
2023-03-22T10:09:54.869Z,35.80
2023-03-22T10:13:05.375Z,36.10
2023-03-22T10:16:13.353Z,36.30
2023-03-22T10:19:31.471Z,36.40
2023-03-22T10:22:42.703Z,36.50
2023-03-22T10:25:56.110Z,35.80
2023-03-22T10:29:15.471Z,35.80
2023-03-22T10:32:54.815Z,35.80
2023-03-22T10:36:01.287Z,35.80
2023-03-22T10:39:16.740Z,36.00
2023-03-22T10:42:24.666Z,36.20
2023-03-22T10:45:28.114Z,35.90
2023-03-22T10:48:34.057Z,36.00
2023-03-22T10:52:02.602Z,35.90
2023-03-22T10:55:17.241Z,36.00
2023-03-22T10:58:21.607Z,35.90
2023-03-22T11:01:28.397Z,35.60
2023-03-22T11:04:31.414Z,35.60
2023-03-22T11:07:44.126Z,35.60
2023-03-22T11:10:52.382Z,35.40
2023-03-22T11:14:23.685Z,35.50
2023-03-22T11:17:26.138Z,35.60
2023-03-22T11:20:31.002Z,35.80
2023-03-22T11:23:36.078Z,35.70
2023-03-22T11:26:40.787Z,35.90
2023-03-22T11:29:50.348Z,35.80
2023-03-22T11:33:21.406Z,35.80
2023-03-22T11:36:24.691Z,36.30
2023-03-22T11:39:28.562Z,36.40
2023-03-22T11:42:34.736Z,36.70
2023-03-22T11:45:41.186Z,36.20
2023-03-22T11:48:46.663Z,36.50
2023-03-22T11:51:49.138Z,36.50
2023-03-22T11:54:52.740Z,36.30
2023-03-22T11:57:56.982Z,36.50
2023-03-22T12:01:02.079Z,36.70
2023-03-22T12:04:08.881Z,36.80
2023-03-22T12:07:16.805Z,36.90
2023-03-22T12:10:28.637Z,36.80
2023-03-22T12:13:40.031Z,36.70
2023-03-22T12:16:52.600Z,36.80
2023-03-22T12:20:20.503Z,36.70
2023-03-22T12:23:31.158Z,36.60
2023-03-22T12:26:35.168Z,37.00
2023-03-22T12:29:39.709Z,37.10
2023-03-22T12:32:47.334Z,37.10
2023-03-22T12:35:52.274Z,37.10
2023-03-22T12:38:57.379Z,37.00
2023-03-22T12:42:24.889Z,36.40
2023-03-22T12:45:31.292Z,36.50
2023-03-22T12:48:51.256Z,36.60
2023-03-22T12:52:12.120Z,36.60
2023-03-22T12:55:41.256Z,36.50
2023-03-22T12:58:49.004Z,36.40
2023-03-22T13:01:58.523Z,36.80
2023-03-22T13:05:04.947Z,36.80
2023-03-22T13:08:07.089Z,36.70
2023-03-22T13:11:22.562Z,36.60
2023-03-22T13:14:51.191Z,36.50
2023-03-22T13:17:53.690Z,36.60
2023-03-22T13:21:29.922Z,36.60
2023-03-22T13:24:32.609Z,36.60
2023-03-22T13:27:43.645Z,36.20
2023-03-22T13:30:54.833Z,36.00
2023-03-22T13:34:01.197Z,35.80
2023-03-22T13:37:08.034Z,35.90
2023-03-22T13:40:29.808Z,35.90
2023-03-22T13:43:34.062Z,36.00
2023-03-22T13:46:36.189Z,35.70
2023-03-22T13:49:51.386Z,35.50
2023-03-22T13:53:01.173Z,35.10
2023-03-22T13:56:07.037Z,35.40
2023-03-22T13:59:27.291Z,35.60
2023-03-22T14:02:36.146Z,34.70
2023-03-22T14:05:39.206Z,34.80
2023-03-22T14:08:44.615Z,35.00
2023-03-22T14:11:52.588Z,35.20
2023-03-22T14:15:00.366Z,35.50
2023-03-22T14:18:21.534Z,35.60
2023-03-22T14:21:30.383Z,35.40
